Time;durP1;ratioP1;P1;durP2;ratioP2;P2;SDS_P1;SDS_P2;PMS_P1;PMS_P2;Temp;Humidity;BMP_temperature;BMP_pressure;BME280_temperature;BME280_humidity;BME280_pressure;Samples;Min_cycle;Max_cycle;Signal;HPM_P1;HPM_P2
2023/06/06 00:00:21;;;;;;;6.28;3.05;;;;;;;22.58;59.38;99574.97;4477169;32;33915;-69
2023/06/06 00:02:49;;;;;;;9.68;3.50;;;;;;;22.64;59.13;99570.59;4475454;31;32761;-71
2023/06/06 00:05:17;;;;;;;5.57;3.15;;;;;;;22.52;59.38;99576.59;4478753;31;34727;-69
2023/06/06 00:07:46;;;;;;;8.77;3.72;;;;;;;22.52;59.35;99581.19;4477862;31;34687;-71
2023/06/06 00:10:15;;;;;;;5.07;3.03;;;;;;;22.49;59.53;99581.59;4478202;31;34227;-71
2023/06/06 00:12:52;;;;;;;11.35;3.37;;;;;;;22.33;60.03;99583.53;4479260;31;34265;-68
2023/06/06 00:15:20;;;;;;;4.62;2.75;;;;;;;22.35;59.93;99577.91;4478573;31;32532;-70
2023/06/06 00:17:53;;;;;;;8.32;3.35;;;;;;;22.44;59.80;99590.37;4477670;31;33785;-68
2023/06/06 00:20:22;;;;;;;7.35;3.75;;;;;;;22.47;60.04;99581.78;4477992;31;33503;-71
2023/06/06 00:22:53;;;;;;;5.50;2.95;;;;;;;22.19;61.13;99594.50;4479512;32;32971;-71
2023/06/06 00:25:21;;;;;;;8.77;3.80;;;;;;;22.42;60.13;99594.31;4478473;31;33454;-68
2023/06/06 00:27:48;;;;;;;6.65;3.37;;;;;;;22.51;59.84;99587.69;4478718;31;33538;-69
2023/06/06 00:30:16;;;;;;;5.53;2.83;;;;;;;22.18;61.12;99584.63;4476003;31;33986;-69
2023/06/06 00:32:45;;;;;;;11.65;3.78;;;;;;;22.37;60.79;99572.25;4474831;31;33190;-69
2023/06/06 00:35:12;;;;;;;5.32;2.67;;;;;;;22.50;60.25;99575.94;4479167;31;34642;-69
2023/06/06 00:37:40;;;;;;;6.47;2.83;;;;;;;22.58;59.96;99580.41;4477840;32;33817;-71
2023/06/06 00:40:09;;;;;;;5.87;3.42;;;;;;;22.61;60.01;99574.56;4474106;31;33810;-71
2023/06/06 00:42:37;;;;;;;9.73;4.53;;;;;;;22.65;59.90;99577.75;4478652;32;31975;-71
2023/06/06 00:45:05;;;;;;;8.15;3.00;;;;;;;22.71;59.56;99574.22;4478966;31;32115;-69
2023/06/06 00:47:32;;;;;;;5.93;2.95;;;;;;;22.72;59.98;99567.72;4477860;31;33908;-69
2023/06/06 00:50:01;;;;;;;6.00;2.92;;;;;;;22.70;59.76;99562.47;4477199;31;33959;-68
2023/06/06 00:52:30;;;;;;;10.23;4.03;;;;;;;22.50;59.99;99559.59;4477453;31;32767;-68
2023/06/06 00:54:58;;;;;;;6.57;3.08;;;;;;;22.28;60.48;99568.81;4475223;32;33729;-68
2023/06/06 00:57:26;;;;;;;7.45;3.47;;;;;;;22.49;59.82;99557.03;4478320;31;33948;-69
2023/06/06 00:59:54;;;;;;;7.10;3.67;;;;;;;22.38;60.92;99550.25;4475240;31;33839;-70
2023/06/06 01:02:24;;;;;;;9.55;3.20;;;;;;;22.55;60.48;99550.81;4464278;31;33352;-72
2023/06/06 01:04:52;;;;;;;5.25;2.97;;;;;;;22.52;60.18;99548.47;4477835;31;33886;-70
2023/06/06 01:07:20;;;;;;;6.72;3.40;;;;;;;22.46;60.55;99566.44;4478327;31;34751;-70
2023/06/06 01:09:47;;;;;;;6.35;3.62;;;;;;;22.43;60.77;99560.56;4478767;31;33744;-71
2023/06/06 01:12:28;;;;;;;7.60;3.87;;;;;;;;;;4478391;31;33313;-71
2023/06/06 01:15:08;;;;;;;6.72;3.08;;;;;;;22.62;60.26;99556.31;4478731;32;34393;-71
2023/06/06 01:17:36;;;;;;;7.22;2.85;;;;;;;22.33;60.14;99559.00;4475947;31;35329;-70
2023/06/06 01:20:09;;;;;;;5.80;2.87;;;;;;;22.47;59.73;99554.53;4473795;32;32741;-71
2023/06/06 01:22:37;;;;;;;4.65;2.50;;;;;;;22.33;60.13;99552.69;4478899;31;33295;-69
2023/06/06 01:25:06;;;;;;;5.43;2.85;;;;;;;21.91;60.99;99553.50;4473673;31;33410;-70
2023/06/06 01:27:34;;;;;;;3.80;2.08;;;;;;;22.05;60.36;99555.31;4477225;32;32679;-71
2023/06/06 01:30:03;;;;;;;7.75;2.92;;;;;;;21.97;60.85;99556.28;4478310;31;34217;-69
2023/06/06 01:32:46;;;;;;;8.23;2.72;;;;;;;21.79;61.60;99551.25;4480297;31;34261;-70
2023/06/06 01:35:41;;;;;;;7.22;3.03;;;;;;;21.58;62.29;99549.34;4479420;32;32305;-72
2023/06/06 01:38:16;;;;;;;5.28;2.78;;;;;;;21.57;62.39;99547.69;4478099;31;34092;-74
2023/06/06 01:40:46;;;;;;;4.37;2.58;;;;;;;21.87;61.67;99539.41;4480195;31;33882;-73
2023/06/06 01:43:16;;;;;;;4.05;2.30;;;;;;;21.92;61.49;99549.72;4480976;32;32600;-69
2023/06/06 01:45:44;;;;;;;5.75;2.85;;;;;;;22.06;61.09;99549.69;4480767;31;33979;-72
2023/06/06 01:48:12;;;;;;;4.68;2.70;;;;;;;22.15;60.84;99555.88;4479803;31;33749;-69
2023/06/06 01:50:40;;;;;;;6.55;2.60;;;;;;;22.13;61.05;99543.47;4480634;32;34967;-71
2023/06/06 01:53:07;;;;;;;5.55;3.08;;;;;;;22.00;61.11;99552.34;4477074;31;31811;-71
2023/06/06 01:55:38;;;;;;;4.47;2.87;;;;;;;21.88;61.38;99552.00;4481193;32;34801;-69
2023/06/06 01:58:06;;;;;;;4.32;2.42;;;;;;;22.02;61.20;99553.84;4480101;31;33749;-70
2023/06/06 02:00:34;;;;;;;7.80;2.80;;;;;;;22.01;61.34;99549.41;4479367;31;33786;-70
2023/06/06 02:03:02;;;;;;;9.20;3.78;;;;;;;22.08;61.25;99541.31;4475210;31;33968;-69
2023/06/06 02:05:30;;;;;;;5.57;2.55;;;;;;;22.15;61.06;99535.91;4481780;31;33658;-68
2023/06/06 02:07:57;;;;;;;5.60;3.00;;;;;;;21.83;61.79;99538.97;4478119;31;34005;-69
2023/06/06 02:10:25;;;;;;;6.05;2.67;;;;;;;22.30;60.46;99540.28;4480425;32;33888;-70
2023/06/06 02:12:53;;;;;;;4.90;3.03;;;;;;;22.38;60.41;99546.69;4481414;31;33239;-69
2023/06/06 02:15:21;;;;;;;4.22;2.75;;;;;;;22.48;60.27;99549.91;4482098;32;33662;-70
2023/06/06 02:17:49;;;;;;;7.28;3.58;;;;;;;22.38;60.86;99557.59;4481659;32;33922;-69
2023/06/06 02:20:16;;;;;;;3.78;1.92;;;;;;;22.42;60.66;99554.25;4479399;31;35180;-70
2023/06/06 02:22:44;;;;;;;4.20;2.35;;;;;;;22.40;61.04;99563.66;4478362;31;32173;-71
2023/06/06 02:25:13;;;;;;;6.03;2.42;;;;;;;22.58;60.41;99564.06;4481133;31;33507;-72
2023/06/06 02:27:44;;;;;;;6.05;3.12;;;;;;;22.63;60.30;99558.84;4481714;32;34710;-71
2023/06/06 02:30:12;;;;;;;4.72;2.47;;;;;;;22.61;60.32;99557.38;4479679;31;34634;-71
2023/06/06 02:32:41;;;;;;;4.10;2.62;;;;;;;22.53;60.31;99561.91;4477589;31;33472;-71
2023/06/06 02:35:09;;;;;;;4.68;2.37;;;;;;;22.50;60.98;99569.63;4479793;31;33807;-71
2023/06/06 02:37:37;;;;;;;4.70;2.65;;;;;;;22.54;60.70;99574.50;4481196;32;34141;-71
2023/06/06 02:40:08;;;;;;;4.30;2.47;;;;;;;22.59;60.72;99581.25;4481648;32;33831;-69
2023/06/06 02:42:38;;;;;;;5.95;2.62;;;;;;;22.54;60.74;99582.69;4479694;31;33173;-71
2023/06/06 02:45:08;;;;;;;6.62;3.40;;;;;;;22.60;60.96;99594.72;4479687;32;33778;-69
2023/06/06 02:47:36;;;;;;;8.63;2.80;;;;;;;22.56;61.19;99577.03;4479932;31;34814;-73
2023/06/06 02:50:05;;;;;;;6.85;2.87;;;;;;;22.40;61.46;99586.31;4479412;31;33668;-71
2023/06/06 02:52:33;;;;;;;5.03;2.78;;;;;;;22.56;61.02;99580.59;4477245;31;32191;-72
2023/06/06 02:55:00;;;;;;;6.12;3.25;;;;;;;22.55;61.07;99581.66;4480134;31;33843;-71
2023/06/06 02:57:30;;;;;;;6.68;3.92;;;;;;;22.39;61.38;99575.63;4476780;31;32403;-73
2023/06/06 02:59:59;;;;;;;5.50;3.55;;;;;;;22.41;61.68;99579.84;4481606;32;33120;-71
2023/06/06 03:02:27;;;;;;;9.80;4.37;;;;;;;22.38;61.67;99585.69;4478763;31;33389;-71
2023/06/06 03:04:55;;;;;;;5.50;3.00;;;;;;;22.56;61.28;99583.31;4474613;31;33941;-71
2023/06/06 03:07:23;;;;;;;5.25;3.03;;;;;;;22.52;61.56;99581.19;4481155;31;33316;-70
2023/06/06 03:09:51;;;;;;;6.35;3.28;;;;;;;22.64;60.97;99579.63;4480579;31;33866;-71
2023/06/06 03:12:19;;;;;;;5.62;3.28;;;;;;;22.59;60.98;99590.28;4480057;31;32451;-72
2023/06/06 03:14:47;;;;;;;6.15;2.53;;;;;;;22.65;60.73;99584.03;4477675;31;34814;-73
2023/06/06 03:17:24;;;;;;;5.30;2.95;;;;;;;22.68;60.85;99582.81;4465132;31;33125;-71
2023/06/06 03:19:52;;;;;;;7.10;4.05;;;;;;;22.23;62.15;99604.81;4475374;31;33939;-71
2023/06/06 03:22:20;;;;;;;5.68;2.85;;;;;;;22.20;62.47;99607.09;4478256;32;33339;-71
2023/06/06 03:24:49;;;;;;;5.55;2.90;;;;;;;22.13;62.91;99612.44;4476058;31;34865;-73
2023/06/06 03:27:18;;;;;;;9.77;3.10;;;;;;;22.15;62.85;99620.41;4479368;32;34135;-73
2023/06/06 03:29:46;;;;;;;6.22;3.67;;;;;;;22.38;61.66;99612.13;4479391;31;31273;-71
2023/06/06 03:32:13;;;;;;;6.57;3.58;;;;;;;22.16;62.85;99606.63;4480152;32;33094;-71
2023/06/06 03:34:41;;;;;;;5.80;3.97;;;;;;;22.17;63.05;99610.22;4480260;32;31165;-70
2023/06/06 03:37:11;;;;;;;5.80;2.78;;;;;;;22.32;62.40;99611.84;4478891;31;33882;-71
2023/06/06 03:39:40;;;;;;;6.30;3.78;;;;;;;22.42;62.07;99602.50;4478678;31;33730;-73
2023/06/06 03:42:09;;;;;;;5.22;3.08;;;;;;;22.46;62.14;99603.78;4479218;31;33082;-71
2023/06/06 03:44:36;;;;;;;9.15;3.83;;;;;;;22.46;62.20;99601.06;4477501;32;35596;-71
2023/06/06 03:47:06;;;;;;;6.55;3.90;;;;;;;22.43;62.22;99596.84;4478895;31;33962;-69
2023/06/06 03:49:36;;;;;;;6.80;3.55;;;;;;;22.42;62.08;99591.59;4478142;31;32286;-70
2023/06/06 03:52:05;;;;;;;6.05;3.65;;;;;;;21.95;63.61;99588.34;4479466;31;33223;-71
2023/06/06 03:54:36;;;;;;;7.10;3.40;;;;;;;21.79;64.22;99588.56;4476592;32;33537;-70
2023/06/06 03:57:08;;;;;;;6.00;3.08;;;;;;;21.65;64.75;99579.38;4475734;31;34195;-71
2023/06/06 03:59:36;;;;;;;6.05;3.12;;;;;;;21.70;64.80;99571.50;4477363;31;33854;-71
2023/06/06 04:02:05;;;;;;;6.95;3.15;;;;;;;21.14;66.93;99563.81;4478512;32;33066;-73
2023/06/06 04:04:32;;;;;;;4.95;3.28;;;;;;;20.85;68.06;99556.47;4480008;31;33645;-73
2023/06/06 04:07:00;;;;;;;6.70;3.83;;;;;;;21.29;66.56;99571.12;4478801;32;33979;-74
2023/06/06 04:09:28;;;;;;;7.80;2.97;;;;;;;21.50;65.66;99575.84;4476466;31;34472;-74
2023/06/06 04:11:55;;;;;;;10.70;3.20;;;;;;;21.78;64.85;99575.97;4479241;31;32005;-74
2023/06/06 04:14:23;;;;;;;5.37;2.97;;;;;;;21.90;64.33;99576.34;4480707;31;33972;-73
2023/06/06 04:16:51;;;;;;;9.63;3.47;;;;;;;21.94;64.20;99580.38;4478706;32;34701;-71
2023/06/06 04:19:19;;;;;;;6.18;3.65;;;;;;;21.97;64.05;99578.09;4471492;31;34495;-73
2023/06/06 04:21:47;;;;;;;14.48;4.18;;;;;;;22.10;63.63;99580.97;4475748;31;34284;-72
2023/06/06 04:24:15;;;;;;;8.55;4.20;;;;;;;22.16;63.42;99576.66;4477936;32;33924;-71
2023/06/06 04:26:42;;;;;;;6.15;3.50;;;;;;;22.24;63.26;99573.78;4479838;31;33615;-71
2023/06/06 04:29:12;;;;;;;7.43;3.80;;;;;;;22.31;63.07;99585.62;4480048;31;34806;-70
2023/06/06 04:31:41;;;;;;;6.45;3.67;;;;;;;22.25;63.17;99585.56;4478080;31;34141;-71
2023/06/06 04:34:12;;;;;;;5.75;3.12;;;;;;;22.23;63.32;99580.28;4478806;32;33193;-71
2023/06/06 04:36:40;;;;;;;6.93;3.83;;;;;;;22.39;62.91;99570.16;4480358;31;34800;-71
2023/06/06 04:39:09;;;;;;;7.20;3.47;;;;;;;22.46;62.74;99577.38;4478207;31;34017;-70
2023/06/06 04:41:36;;;;;;;5.90;3.62;;;;;;;22.39;62.82;99576.47;4478767;31;33174;-73
2023/06/06 04:44:08;;;;;;;6.25;3.15;;;;;;;22.32;63.09;99578.28;4476911;32;32573;-70
2023/06/06 04:46:36;;;;;;;5.65;3.40;;;;;;;22.48;62.27;99569.84;4479798;31;34200;-69
2023/06/06 04:49:04;;;;;;;6.65;3.47;;;;;;;22.48;62.33;99578.03;4478402;31;35163;-67
2023/06/06 04:51:32;;;;;;;7.87;3.40;;;;;;;22.44;62.62;99574.00;4479548;32;33677;-68
2023/06/06 04:54:02;;;;;;;5.78;3.17;;;;;;;22.48;62.33;99564.38;4474544;31;33864;-68
2023/06/06 04:56:30;;;;;;;6.12;3.25;;;;;;;22.38;62.65;99572.06;4477757;32;33890;-69
2023/06/06 04:59:08;;;;;;;5.70;3.40;;;;;;;22.31;62.94;99573.84;4469665;31;32822;-68
2023/06/06 05:01:36;;;;;;;6.05;2.92;;;;;;;22.26;63.16;99570.88;4472597;32;36205;-70
2023/06/06 05:04:05;;;;;;;6.65;3.17;;;;;;;22.36;63.03;99576.84;4481707;31;33850;-69
2023/06/06 05:06:34;;;;;;;6.28;3.70;;;;;;;22.45;62.66;99570.22;4479387;31;33970;-71
2023/06/06 05:09:06;;;;;;;6.65;3.50;;;;;;;22.32;62.91;99576.41;4480255;31;33837;-71
2023/06/06 05:11:34;;;;;;;5.00;2.97;;;;;;;22.37;62.84;99583.97;4477167;31;33498;-70
2023/06/06 05:14:02;;;;;;;9.95;4.53;;;;;;;22.39;62.64;99583.81;4480140;31;34423;-70
2023/06/06 05:16:30;;;;;;;7.90;3.95;;;;;;;22.41;62.74;99596.22;4480729;32;32668;-71
2023/06/06 05:18:58;;;;;;;4.72;3.05;;;;;;;22.27;62.93;99589.75;4482379;31;32375;-71
2023/06/06 05:21:25;;;;;;;5.32;3.05;;;;;;;22.21;63.35;99592.41;4481765;31;33238;-70
2023/06/06 05:23:54;;;;;;;5.30;3.10;;;;;;;21.97;63.99;99593.59;4482191;31;33488;-74
2023/06/06 05:26:22;;;;;;;7.72;4.45;;;;;;;22.27;63.35;99594.38;4482110;31;32872;-70
2023/06/06 05:28:49;;;;;;;8.85;4.43;;;;;;;22.02;64.20;99592.00;4477605;31;32286;-69
2023/06/06 05:31:20;;;;;;;7.50;4.00;;;;;;;22.09;64.13;99590.19;4481900;31;31819;-71
2023/06/06 05:33:48;;;;;;;6.95;4.12;;;;;;;22.15;64.04;99599.47;4481994;32;33627;-71
2023/06/06 05:36:16;;;;;;;6.50;4.22;;;;;;;22.25;63.98;99594.59;4482614;31;33795;-70
2023/06/06 05:38:43;;;;;;;6.07;3.75;;;;;;;22.07;64.16;99597.69;4480581;31;34026;-70
2023/06/06 05:41:12;;;;;;;6.78;2.90;;;;;;;21.91;65.01;99599.81;4478192;31;32414;-69
2023/06/06 05:43:40;;;;;;;6.72;4.53;;;;;;;21.97;64.66;99599.91;4479877;31;33563;-70
2023/06/06 05:46:07;;;;;;;7.43;4.35;;;;;;;21.96;64.92;99597.34;4468197;32;33781;-67
2023/06/06 05:48:35;;;;;;;9.52;4.37;;;;;;;21.60;66.24;99596.31;4480732;31;33669;-70
2023/06/06 05:51:03;;;;;;;8.07;4.20;;;;;;;21.23;67.76;99602.66;4477427;32;34927;-68
2023/06/06 05:53:31;;;;;;;9.00;5.05;;;;;;;21.08;68.64;99589.03;4480432;31;33866;-69
2023/06/06 05:55:58;;;;;;;7.15;4.32;;;;;;;21.08;69.00;99594.47;4471060;31;33868;-67
2023/06/06 05:58:26;;;;;;;8.57;4.85;;;;;;;21.09;69.25;99598.91;4473396;31;32540;-70
2023/06/06 06:00:55;;;;;;;8.70;4.60;;;;;;;21.31;68.50;99604.44;4472781;31;34334;-70
2023/06/06 06:03:24;;;;;;;9.65;4.53;;;;;;;21.25;68.63;99595.16;4477712;32;35460;-70
2023/06/06 06:05:52;;;;;;;8.25;4.47;;;;;;;21.27;68.75;99609.41;4482434;32;35335;-67
2023/06/06 06:08:21;;;;;;;7.70;5.00;;;;;;;21.44;68.10;99607.38;4482815;31;33880;-69
2023/06/06 06:10:49;;;;;;;7.00;4.35;;;;;;;21.26;68.74;99607.75;4478558;31;31384;-69
2023/06/06 06:13:16;;;;;;;8.07;4.85;;;;;;;21.31;68.96;99609.88;4480120;31;36288;-69
2023/06/06 06:15:44;;;;;;;7.40;4.57;;;;;;;21.29;69.01;99611.97;4480616;32;34012;-67
2023/06/06 06:18:11;;;;;;;7.72;4.72;;;;;;;21.26;68.70;99607.75;4483332;32;34588;-67
2023/06/06 06:20:39;;;;;;;15.55;5.55;;;;;;;21.02;69.85;99614.25;4478273;31;34580;-67
2023/06/06 06:23:07;;;;;;;11.05;5.93;;;;;;;20.91;71.26;99617.44;4484374;32;34540;-70
2023/06/06 06:25:35;;;;;;;8.80;5.35;;;;;;;20.89;71.28;99622.22;4483281;32;34024;-67
2023/06/06 06:28:03;;;;;;;7.82;4.87;;;;;;;21.14;70.17;99618.22;4484331;32;34903;-70
2023/06/06 06:30:31;;;;;;;9.88;5.15;;;;;;;21.32;69.68;99619.75;4480988;31;33438;-70
2023/06/06 06:32:58;;;;;;;9.57;5.62;;;;;;;21.23;69.88;99623.59;4483403;32;33723;-67
2023/06/06 06:35:26;;;;;;;8.43;5.45;;;;;;;21.45;69.15;99630.03;4482220;31;35008;-70
2023/06/06 06:37:54;;;;;;;10.50;5.85;;;;;;;21.53;68.77;99627.19;4478563;32;32621;-69
2023/06/06 06:40:22;;;;;;;13.70;6.72;;;;;;;21.62;68.56;99635.06;4481266;31;34855;-70
2023/06/06 06:42:50;;;;;;;13.60;6.78;;;;;;;21.80;68.09;99629.25;4484813;32;33813;-71
2023/06/06 06:45:20;;;;;;;9.68;6.43;;;;;;;21.81;67.52;99628.19;4477354;32;33992;-76
2023/06/06 06:47:48;;;;;;;9.30;6.00;;;;;;;21.79;67.80;99637.59;4472971;32;32924;-69
2023/06/06 06:50:16;;;;;;;11.50;7.18;;;;;;;21.75;68.09;99644.47;4476814;32;33478;-72
2023/06/06 06:52:44;;;;;;;10.25;7.50;;;;;;;22.00;67.24;99645.84;4482300;32;34842;-72
2023/06/06 06:55:12;;;;;;;12.10;6.68;;;;;;;22.08;66.89;99640.25;4482978;31;33978;-72
2023/06/06 06:57:42;;;;;;;11.90;7.50;;;;;;;22.23;66.48;99648.44;4483564;32;33593;-70
2023/06/06 07:00:14;;;;;;;10.85;6.70;;;;;;;22.30;66.15;99643.91;4480408;32;34185;-71
2023/06/06 07:02:45;;;;;;;9.35;6.12;;;;;;;22.36;66.14;99644.19;4473650;31;34654;-71
2023/06/06 07:05:15;;;;;;;13.95;7.50;;;;;;;22.40;66.09;99648.19;4478944;31;33392;-72
2023/06/06 07:07:47;;;;;;;12.02;6.78;;;;;;;22.39;66.14;99644.63;4484475;32;34012;-71
2023/06/06 07:10:16;;;;;;;11.85;8.32;;;;;;;22.31;66.31;99653.78;4484250;32;33222;-71
2023/06/06 07:12:48;;;;;;;11.05;6.40;;;;;;;22.27;66.18;99647.00;4484896;32;34923;-72
2023/06/06 07:15:16;;;;;;;14.77;8.68;;;;;;;22.23;66.53;99653.91;4476445;31;34932;-69
2023/06/06 07:17:49;;;;;;;13.43;7.60;;;;;;;22.35;66.44;99654.25;4481435;31;32723;-72
2023/06/06 07:20:19;;;;;;;15.00;8.82;;;;;;;22.17;66.76;99651.09;4483475;32;32209;-72
2023/06/06 07:22:49;;;;;;;22.75;9.60;;;;;;;22.21;66.72;99655.94;4480088;32;34953;-73
2023/06/06 07:25:17;;;;;;;16.45;8.98;;;;;;;22.15;67.17;99653.13;4481525;31;33816;-72
2023/06/06 07:27:44;;;;;;;13.52;8.27;;;;;;;22.18;67.16;99652.78;4481370;32;33746;-72
2023/06/06 07:30:12;;;;;;;15.77;9.35;;;;;;;22.23;67.40;99653.91;4483157;32;33155;-72
2023/06/06 07:32:44;;;;;;;13.80;9.25;;;;;;;22.18;67.76;99650.03;4479482;32;33568;-71
2023/06/06 07:35:13;;;;;;;14.48;9.65;;;;;;;22.15;68.34;99648.53;4478786;31;32930;-72
2023/06/06 07:37:40;;;;;;;13.45;8.98;;;;;;;22.24;67.92;99643.81;4481751;32;34572;-73
2023/06/06 07:40:10;;;;;;;15.88;9.70;;;;;;;22.35;67.67;99647.94;4480158;32;34122;-70
2023/06/06 07:42:40;;;;;;;20.05;11.63;;;;;;;22.40;67.72;99634.56;4484327;32;34088;-73
2023/06/06 07:45:09;;;;;;;19.83;11.88;;;;;;;22.39;68.10;99641.06;4482594;31;33683;-69
2023/06/06 07:47:38;;;;;;;16.77;10.50;;;;;;;22.45;68.51;99643.84;4480747;32;35342;-73
2023/06/06 07:50:06;;;;;;;17.70;10.38;;;;;;;22.27;68.09;99643.44;4475931;32;219822;-70
2023/06/06 07:52:34;;;;;;;16.75;11.18;;;;;;;22.35;68.12;99637.88;4482701;32;34848;-70
2023/06/06 07:55:05;;;;;;;16.23;10.52;;;;;;;22.17;69.11;99637.47;4476743;31;35149;-73
2023/06/06 07:57:33;;;;;;;17.58;10.98;;;;;;;22.40;68.96;99642.75;4483667;31;32653;-68
2023/06/06 08:00:06;;;;;;;15.07;10.70;;;;;;;22.46;68.55;99642.81;4483797;32;33419;-71
2023/06/06 08:02:39;;;;;;;20.25;10.85;;;;;;;22.24;69.68;99638.38;4478057;32;33817;-71
2023/06/06 08:05:08;;;;;;;19.33;13.15;;;;;;;22.64;68.10;99639.66;4479655;31;35023;-71
2023/06/06 08:07:40;;;;;;;20.02;14.07;;;;;;;22.72;67.23;99638.66;4480466;32;34318;-71
2023/06/06 08:10:09;;;;;;;23.33;13.27;;;;;;;22.48;68.00;99632.56;4479830;31;33600;-70
2023/06/06 08:12:37;;;;;;;19.40;12.13;;;;;;;22.33;68.79;99638.06;4480399;32;33945;-70
2023/06/06 08:15:06;;;;;;;19.27;12.05;;;;;;;22.68;67.87;99623.72;4481940;31;33878;-71
2023/06/06 08:17:33;;;;;;;18.23;11.63;;;;;;;22.78;67.68;99625.06;4480528;31;34827;-71
2023/06/06 08:20:05;;;;;;;20.48;12.93;;;;;;;23.02;67.20;99631.19;4481338;32;31802;-71
2023/06/06 08:22:33;;;;;;;19.42;12.60;;;;;;;23.12;67.01;99623.50;4478146;32;35073;-71
2023/06/06 08:25:08;;;;;;;16.70;9.68;;;;;;;23.02;67.50;99626.56;4480232;32;33950;-72
2023/06/06 08:27:36;;;;;;;17.33;10.50;;;;;;;23.14;67.14;99623.28;4480383;31;34148;-70
2023/06/06 08:30:04;;;;;;;14.35;9.65;;;;;;;23.24;66.65;99619.19;4483435;32;33926;-71
2023/06/06 08:32:33;;;;;;;17.17;11.77;;;;;;;22.87;66.90;99625.78;4478625;32;34029;-72
2023/06/06 08:35:03;;;;;;;21.50;13.80;;;;;;;23.09;66.36;99631.25;4482087;32;34820;-70
2023/06/06 08:37:30;;;;;;;24.87;13.20;;;;;;;23.01;65.83;99622.13;4483524;31;32664;-71
2023/06/06 08:39:58;;;;;;;20.83;13.30;;;;;;;23.13;65.61;99619.72;4485123;32;33467;-69
2023/06/06 08:42:26;;;;;;;21.08;11.98;;;;;;;23.17;65.63;99623.72;4484918;32;33832;-74
2023/06/06 08:44:55;;;;;;;20.27;12.27;;;;;;;23.20;65.47;99617.88;4479316;32;34970;-74
2023/06/06 08:47:25;;;;;;;20.00;14.18;;;;;;;23.14;66.22;99623.28;4483392;31;33334;-75
2023/06/06 08:49:53;;;;;;;19.95;12.32;;;;;;;23.19;65.30;99621.66;4477662;32;32264;-71
2023/06/06 08:52:21;;;;;;;18.62;12.63;;;;;;;23.37;65.43;99621.16;4484411;32;33685;-72
2023/06/06 08:54:50;;;;;;;17.48;11.70;;;;;;;23.14;66.68;99617.81;4485663;32;35476;-71
2023/06/06 08:57:19;;;;;;;19.48;11.75;;;;;;;23.36;65.68;99619.44;4477802;31;33968;-71
2023/06/06 08:59:47;;;;;;;17.12;10.27;;;;;;;23.34;66.02;99618.81;4483469;31;34300;-73
2023/06/06 09:02:15;;;;;;;21.87;13.13;;;;;;;23.68;65.87;99614.38;4483943;32;35823;-72
2023/06/06 09:04:44;;;;;;;20.90;13.45;;;;;;;23.83;65.74;99615.09;4480057;31;32272;-72
2023/06/06 09:07:14;;;;;;;21.25;11.77;;;;;;;23.74;64.89;99616.31;4481903;32;33931;-72
2023/06/06 09:09:43;;;;;;;19.83;12.60;;;;;;;23.78;64.42;99617.59;4475829;31;33414;-72
2023/06/06 09:12:11;;;;;;;17.02;10.77;;;;;;;23.89;63.84;99619.75;4482022;31;34874;-72
2023/06/06 09:14:38;;;;;;;12.63;8.02;;;;;;;24.02;63.18;99620.84;4481552;31;31677;-74
2023/06/06 09:17:06;;;;;;;14.40;8.93;;;;;;;24.04;62.55;99624.22;4483186;32;33912;-74
2023/06/06 09:19:34;;;;;;;18.08;9.48;;;;;;;24.06;61.55;99614.75;4472828;31;34527;-73
2023/06/06 09:22:07;;;;;;;16.95;9.77;;;;;;;24.07;60.41;99621.06;4473328;31;32740;-73
2023/06/06 09:24:41;;;;;;;20.17;10.95;;;;;;;24.02;61.01;99604.47;4484510;31;33960;-73
2023/06/06 09:27:27;;;;;;;15.20;10.20;;;;;;;23.80;62.40;99610.03;4478262;31;33751;-72
2023/06/06 09:29:56;;;;;;;16.80;10.27;;;;;;;23.91;63.25;99609.44;4481092;31;32278;-73
2023/06/06 09:32:30;;;;;;;15.82;10.35;;;;;;;23.86;61.90;99605.66;4478648;32;33848;-71
2023/06/06 09:35:03;;;;;;;;;;;;;;;23.90;60.29;99609.66;4485108;32;33879;-72
2023/06/06 09:37:31;;;;;;;15.20;8.13;;;;;;;24.22;59.74;99607.25;4483639;31;34086;-70
2023/06/06 09:40:12;;;;;;;15.20;7.97;;;;;;;24.34;60.33;99609.16;4484914;32;32147;-69
2023/06/06 09:42:47;;;;;;;12.82;7.95;;;;;;;24.26;58.95;99603.03;4478138;31;33847;-70
2023/06/06 09:45:19;;;;;;;16.10;8.02;;;;;;;23.81;60.15;99603.53;4482263;32;33729;-72
2023/06/06 09:47:48;;;;;;;14.65;9.30;;;;;;;23.85;58.88;99604.81;4475708;31;33972;-70
2023/06/06 09:50:18;;;;;;;15.93;9.82;;;;;;;23.91;60.15;99603.97;4479801;31;34694;-70
2023/06/06 09:52:51;;;;;;;16.67;10.85;;;;;;;23.87;60.81;99602.72;4477139;32;34136;-72
2023/06/06 09:55:19;;;;;;;16.40;10.88;;;;;;;23.92;60.77;99608.41;4476927;32;35033;-70
2023/06/06 09:57:49;;;;;;;19.15;10.77;;;;;;;23.91;61.08;99603.13;4474934;31;33671;-70
2023/06/06 10:00:17;;;;;;;17.27;11.07;;;;;;;23.94;60.77;99600.00;4474875;31;33278;-70
2023/06/06 10:02:46;;;;;;;16.70;12.68;;;;;;;24.10;60.64;99602.34;4470754;31;34943;-70
2023/06/06 10:05:18;;;;;;;16.80;11.10;;;;;;;24.05;61.51;99599.41;4476008;31;33646;-71
2023/06/06 10:07:46;;;;;;;22.20;11.10;;;;;;;24.13;61.24;99598.38;4479650;31;34560;-70
2023/06/06 10:10:16;;;;;;;24.25;14.20;;;;;;;24.07;61.19;99594.56;4482942;32;33462;-69
2023/06/06 10:12:44;;;;;;;20.92;10.52;;;;;;;23.97;60.85;99590.56;4479918;31;34725;-71
2023/06/06 10:15:12;;;;;;;19.95;11.02;;;;;;;23.93;61.34;99593.69;4477425;32;32864;-71
2023/06/06 10:17:41;;;;;;;14.95;11.05;;;;;;;23.96;61.58;99589.72;4484159;32;33740;-66
2023/06/06 10:20:11;;;;;;;15.50;9.73;;;;;;;24.06;61.72;99592.06;4475922;32;33249;-74
2023/06/06 10:22:40;;;;;;;18.00;11.50;;;;;;;23.81;64.03;99592.59;4481247;32;34963;-73
2023/06/06 10:25:11;;;;;;;16.58;10.55;;;;;;;23.85;63.80;99593.88;4483196;32;32238;-74
2023/06/06 10:27:47;;;;;;;15.90;11.60;;;;;;;23.94;63.71;99594.53;4482512;31;32828;-69
2023/06/06 10:30:26;;;;;;;18.42;10.88;;;;;;;23.92;63.94;99593.91;4481279;31;31957;-72
2023/06/06 10:33:17;;;;;;;16.35;12.27;;;;;;;23.98;63.52;99597.69;4473839;32;34099;-74
2023/06/06 10:35:46;;;;;;;15.75;9.90;;;;;;;23.83;63.65;99595.13;4483083;31;33908;-72
2023/06/06 10:38:16;;;;;;;15.18;9.35;;;;;;;23.67;64.03;99597.13;4475712;31;33709;-73
2023/06/06 10:40:53;;;;;;;15.25;8.40;;;;;;;23.79;63.16;99594.69;4481663;31;34262;-74
2023/06/06 10:43:34;;;;;;;11.48;8.05;;;;;;;23.86;62.87;99592.00;4481125;32;33885;-74
2023/06/06 10:46:02;;;;;;;15.93;8.60;;;;;;;23.87;63.24;99593.66;4470172;31;33002;-75
2023/06/06 10:48:45;;;;;;;12.35;8.38;;;;;;;23.90;63.26;99596.84;4476169;31;35258;-71
2023/06/06 10:51:32;;;;;;;21.92;10.88;;;;;;;24.02;62.49;99588.91;4491171;31;33523;-78
2023/06/06 10:54:22;;;;;;;13.77;9.23;;;;;;;24.11;62.26;99584.94;4483133;31;34626;-75
2023/06/06 10:56:54;;;;;;;14.75;9.25;;;;;;;24.07;62.67;99577.31;4475990;31;34211;-77
2023/06/06 10:59:27;;;;;;;12.80;7.82;;;;;;;23.93;62.38;99576.47;4479573;31;33809;-78
2023/06/06 11:01:55;;;;;;;16.70;11.48;;;;;;;23.66;62.93;99578.22;4481279;31;33196;-77
2023/06/06 11:04:25;;;;;;;14.98;10.13;;;;;;;23.92;62.43;99580.25;4478044;31;33455;-77
2023/06/06 11:06:58;;;;;;;14.25;9.00;;;;;;;24.03;62.21;99595.19;4481243;31;34606;-75
2023/06/06 11:09:31;;;;;;;14.65;9.20;;;;;;;24.07;62.84;99588.25;4481693;31;33639;-77
2023/06/06 11:12:13;;;;;;;14.93;9.70;;;;;;;24.07;63.57;99589.09;4490362;31;33317;-76
2023/06/06 11:15:16;;;;;;;17.20;9.85;;;;;;;24.21;63.05;99589.16;4481839;31;32721;-72
2023/06/06 11:17:52;;;;;;;13.63;9.27;;;;;;;24.26;63.08;99589.34;4451010;31;33882;-71
2023/06/06 11:20:22;;;;;;;18.70;9.50;;;;;;;24.31;63.23;99587.69;4483217;31;33920;-72
2023/06/06 11:22:51;;;;;;;16.08;9.35;;;;;;;24.24;62.30;99583.25;4482262;31;33123;-73
2023/06/06 11:25:23;;;;;;;15.48;9.43;;;;;;;24.44;62.13;99581.44;4477172;31;34917;-79
2023/06/06 11:27:53;;;;;;;9.38;5.03;;;;;;;24.33;62.27;99591.06;4478033;31;32872;-78
2023/06/06 11:30:23;;;;;;;8.07;4.20;;;;;;;23.52;63.17;99592.84;4476715;31;33772;-78
2023/06/06 11:32:51;;;;;;;7.18;5.30;;;;;;;23.35;63.41;99592.34;4464598;32;33560;-80
2023/06/06 11:35:21;;;;;;;9.15;5.05;;;;;;;22.91;66.06;99591.59;4478935;31;32771;-79
2023/06/06 11:37:49;;;;;;;7.00;3.87;;;;;;;22.13;68.45;99597.97;4482202;31;33150;-75
2023/06/06 11:40:17;;;;;;;6.22;3.67;;;;;;;21.96;67.36;99603.66;4481883;31;34233;-77